createdAt,value
2023-01-13T00:03:05.646Z,100238.88
2023-01-13T00:13:06.938Z,100244.09
2023-01-13T00:23:08.637Z,100217.91
2023-01-13T00:43:24.990Z,100188.91
2023-01-13T00:53:26.310Z,100186.22
2023-01-13T01:03:27.966Z,100186.22
2023-01-13T01:13:29.376Z,100206.84
2023-01-13T01:23:31.177Z,100204.84
2023-01-13T01:33:32.473Z,100195.13
2023-01-13T01:43:33.921Z,100194.00
2023-01-13T01:53:35.420Z,100202.59
2023-01-13T02:03:37.255Z,100196.53
2023-01-13T02:13:38.648Z,100197.91
2023-01-13T02:23:39.970Z,100198.16
2023-01-13T02:33:41.275Z,100205.53
2023-01-13T02:43:42.639Z,100190.53
2023-01-13T02:53:43.962Z,100190.97
2023-01-13T03:03:48.089Z,100164.31
2023-01-13T03:13:51.130Z,100166.84
2023-01-13T03:23:52.438Z,100160.78
2023-01-13T03:34:00.060Z,100171.84
2023-01-13T03:44:01.473Z,100166.31
2023-01-13T03:54:02.850Z,100152.72
2023-01-13T04:04:04.292Z,100149.78
2023-01-13T04:14:05.807Z,100164.78
2023-01-13T04:24:22.111Z,100188.88
2023-01-13T04:34:23.443Z,100183.56
2023-01-13T04:44:24.815Z,100191.19
2023-01-13T04:54:26.078Z,100179.81
2023-01-13T05:04:27.352Z,100158.66
2023-01-13T05:14:28.626Z,100161.50
2023-01-13T05:24:29.922Z,100160.59
2023-01-13T05:34:31.189Z,100172.59
2023-01-13T05:44:32.476Z,100178.81
2023-01-13T05:54:33.894Z,100189.66
2023-01-13T06:04:35.207Z,100205.59
2023-01-13T06:14:37.263Z,100209.31
2023-01-13T06:24:38.669Z,100228.59
2023-01-13T06:34:39.906Z,100236.91
2023-01-13T06:44:41.186Z,100243.94
2023-01-13T06:54:42.477Z,100233.47
2023-01-13T07:04:44.010Z,100238.13
2023-01-13T07:14:45.276Z,100248.25
2023-01-13T07:24:46.595Z,100259.56
2023-01-13T07:34:48.047Z,100247.75
2023-01-13T07:44:49.591Z,100262.03
2023-01-13T07:55:10.503Z,100288.44
2023-01-13T08:05:11.853Z,100295.56
2023-01-13T08:15:20.872Z,100289.84
2023-01-13T08:25:22.609Z,100300.66
2023-01-13T08:35:24.234Z,100292.16
2023-01-13T08:45:25.677Z,100290.69
2023-01-13T08:55:29.186Z,100300.00
2023-01-13T09:05:37.915Z,100311.69
2023-01-13T09:15:51.364Z,100312.41
2023-01-13T09:26:02.577Z,100328.38
2023-01-13T09:36:04.214Z,100353.47
2023-01-13T09:46:22.087Z,100364.72
2023-01-13T09:56:29.094Z,100369.59
2023-01-13T10:06:33.475Z,100379.84
2023-01-13T10:17:23.831Z,100393.66
2023-01-13T10:26:59.026Z,100405.03
2023-01-13T10:37:00.355Z,100413.22
2023-01-13T10:47:01.736Z,100440.63
2023-01-13T10:57:05.009Z,100440.88
2023-01-13T11:07:09.090Z,100439.25
2023-01-13T11:17:10.416Z,100437.22
2023-01-13T11:27:13.123Z,100447.81
2023-01-13T11:48:03.459Z,100468.53
2023-01-13T12:08:24.131Z,100492.94
2023-01-13T12:49:22.398Z,100538.63
2023-01-13T13:09:40.532Z,100557.78
2023-01-13T13:19:49.461Z,100566.84
2023-01-13T13:40:11.463Z,100584.34
2023-01-13T13:50:12.971Z,100609.72
2023-01-13T14:00:14.544Z,100630.84
2023-01-13T14:21:24.129Z,100680.88
2023-01-13T14:41:28.039Z,100696.09
2023-01-13T14:51:44.261Z,100703.13
2023-01-13T15:01:48.681Z,100745.78
2023-01-13T15:11:51.138Z,100767.97
2023-01-13T15:21:59.087Z,100790.38
2023-01-13T15:32:08.112Z,100821.78
2023-01-13T15:42:09.416Z,100805.25
2023-01-13T15:52:10.879Z,100833.56
2023-01-13T16:12:41.029Z,100861.31
2023-01-13T16:22:50.105Z,100877.00
2023-01-13T16:32:51.465Z,100894.34
2023-01-13T16:42:52.745Z,100891.84
2023-01-13T16:52:54.038Z,100911.78
2023-01-13T17:02:55.311Z,100911.00
2023-01-13T17:13:14.085Z,100938.91
2023-01-13T17:23:17.138Z,100932.00
2023-01-13T17:33:18.396Z,100963.22
2023-01-13T17:43:19.633Z,100983.25
2023-01-13T17:53:20.859Z,100994.75
2023-01-13T18:03:22.093Z,101009.75
2023-01-13T18:13:23.457Z,101013.00
2023-01-13T18:23:24.756Z,101009.75
2023-01-13T18:33:26.023Z,101027.22
2023-01-13T18:43:27.243Z,101030.69
2023-01-13T18:53:29.585Z,101059.31
2023-01-13T19:03:30.878Z,101072.50
2023-01-13T19:13:32.191Z,101083.94
2023-01-13T19:23:33.472Z,101100.47
2023-01-13T19:33:34.710Z,101097.00
2023-01-13T19:43:35.984Z,101113.56
2023-01-13T19:53:37.505Z,101117.97
2023-01-13T20:03:38.780Z,101126.66
2023-01-13T20:13:40.048Z,101141.44
2023-01-13T20:23:41.318Z,101148.59
2023-01-13T20:33:42.584Z,101156.38
2023-01-13T20:43:43.844Z,101167.66
2023-01-13T20:53:45.463Z,101171.13
2023-01-13T21:03:46.783Z,101174.63
2023-01-13T21:13:48.317Z,101194.66
